FW5351 Dobrich current weather conditions

sailwx.info

Wind from 190 at 3 knots gusting 5

Air temperature 5.0° C
Dewpoint -0.0° C

Last reported at 2019-Dec-15 23:00 UTC.
Time now 2019-Dec-15 23:41 UTC

Location: N 43°33' E 027°50'.
View on Google Maps.

See reports from other nearby stations

  
Tides and Currents Weather Stations Pressure Air Temp Water Temp Dewpoint Dewpoint Depression Visibility Wind Speed Wind Dir Waves Ship Positions
date/time (UTC)wind fromknots sea level pressurealtimeterstation pressurevisibilityair tempwater tempwave heightnotes
2019-Dec-15 23:00 190 3 gusting 5 5.0
2019-Dec-15 22:51 205 3 gusting 4 4.4
2019-Dec-15 22:40 218 1 gusting 3 3.3
2019-Dec-15 22:30 194 1 gusting 2 3.9
2019-Dec-15 22:21 180 1 gusting 2 3.3
2019-Dec-15 22:10 186 0 gusting 2 3.3
2019-Dec-15 22:00 181 0 gusting 2 3.3
2019-Dec-15 21:51 130 0 gusting 2 3.3
2019-Dec-15 21:40 143 3.3
2019-Dec-15 21:31 157 3.3
2019-Dec-15 21:20 194 3.3
2019-Dec-15 21:10 211 0 gusting 2 3.3
2019-Dec-15 21:01 225 0 gusting 2 3.3
2019-Dec-15 20:50 216 0 gusting 1 3.3
2019-Dec-15 20:40 217 0 gusting 1 2.8
2019-Dec-15 20:31 191 0 gusting 1 2.8
2019-Dec-15 20:20 212 0 gusting 2 2.8
2019-Dec-15 20:10 193 0 gusting 1 3.9
2019-Dec-15 20:01 172 3.9
2019-Dec-15 19:50 170 3.9
2019-Dec-15 19:41 172 0 gusting 1 3.9
2019-Dec-15 19:30 187 0 gusting 1 3.9
2019-Dec-15 19:20 220 0 gusting 2 3.9
2019-Dec-15 19:11 225 1 gusting 2 3.9
2019-Dec-15 19:00 218 0 gusting 2 3.9
2019-Dec-15 18:50 200 0 gusting 2 3.9
2019-Dec-15 18:41 163 1 gusting 2 3.9
2019-Dec-15 18:30 185 1 gusting 3 3.9
2019-Dec-15 18:20 225 0 gusting 1 3.9
2019-Dec-15 18:10 203 0 gusting 2 4.4
2019-Dec-15 18:00 191 1 gusting 4 4.4
2019-Dec-15 17:51 190 0 gusting 2 4.4
2019-Dec-15 17:40 203 0 gusting 2 5.0
2019-Dec-15 17:30 186 1 gusting 2 5.0
2019-Dec-15 17:21 180 0 gusting 2 5.0
2019-Dec-15 17:10 184 1 gusting 3 4.4
2019-Dec-15 17:00 180 1 gusting 2 5.0
2019-Dec-15 16:50 194 0 gusting 2 5.0
2019-Dec-15 16:40 165 1 gusting 2 5.6
2019-Dec-15 16:31 183 0 gusting 2 5.6
2019-Dec-15 16:20 175 0 gusting 2 6.1
2019-Dec-15 16:10 174 0 gusting 2 7.2
2019-Dec-15 16:01 246 1 gusting 2 7.8
2019-Dec-15 15:50 225 2 gusting 3 7.8
2019-Dec-15 15:40 225 1 gusting 2 8.3
2019-Dec-15 15:31 230 1 gusting 2 8.3
2019-Dec-15 15:20 249 2 gusting 4 8.9
2019-Dec-15 15:10 229 3 gusting 5 8.3
2019-Dec-15 15:00 219 0 gusting 2 8.3
2019-Dec-15 14:50 205 0 gusting 2 9.4
2019-Dec-15 14:41 217 2 gusting 4 10.0
2019-Dec-15 14:30 225 5 gusting 7 10.6
2019-Dec-15 14:20 232 3 gusting 4 11.1
2019-Dec-15 14:11 217 2 gusting 4 12.2
2019-Dec-15 14:00 225 2 gusting 4 12.8
2019-Dec-15 13:50 250 3 gusting 5 12.8
2019-Dec-15 13:41 225 4 gusting 6 12.8
2019-Dec-15 13:30 219 4 gusting 7 13.3
2019-Dec-15 13:20 218 2 gusting 5 13.9
2019-Dec-15 13:10 214 1 gusting 2 14.4
2019-Dec-15 13:00 200 2 gusting 5 13.9
2019-Dec-15 12:51 240 5 gusting 7 13.3
2019-Dec-15 12:40 221 2 gusting 5 13.9
2019-Dec-15 12:30 189 2 gusting 7 14.4
2019-Dec-15 12:21 185 2 gusting 6 14.4
2019-Dec-15 12:10 191 2 gusting 4 14.4
2019-Dec-15 12:00 154 2 gusting 5 15.0
2019-Dec-15 11:51 117 1 gusting 5 14.4
2019-Dec-15 11:40 194 2 gusting 4 14.4
2019-Dec-15 11:30 225 1 gusting 4 14.4
2019-Dec-15 11:21 213 2 gusting 5 13.9
2019-Dec-15 11:10 019 2 gusting 5 14.4
2019-Dec-15 11:01 040 1 gusting 6 13.9
2019-Dec-15 10:50 099 2 gusting 5 13.9
2019-Dec-15 10:40 119 1 gusting 6 13.9
2019-Dec-15 10:31 218 1 gusting 5 13.9
2019-Dec-15 10:20 277 2 gusting 6 13.3
2019-Dec-15 10:10 356 3 gusting 6 12.8
2019-Dec-15 10:01 206 2 gusting 5 12.8
2019-Dec-15 09:50 214 1 gusting 3 12.2
2019-Dec-15 09:40 014 2 gusting 6 12.2
2019-Dec-15 09:31 311 1 gusting 5 11.7
2019-Dec-15 09:20 210 1 gusting 5 11.1
2019-Dec-15 09:10 080 2 gusting 6 11.1
2019-Dec-15 09:00 246 2 gusting 5 11.1
2019-Dec-15 08:50 213 1 gusting 4 10.6
2019-Dec-15 08:41 051 1 gusting 5 10.0
2019-Dec-15 08:30 254 2 gusting 6 9.4
2019-Dec-15 08:20 196 3 gusting 7 9.4
2019-Dec-15 08:11 228 3 gusting 5 9.4
2019-Dec-15 08:00 190 1 gusting 2 8.9
2019-Dec-15 07:50 231 3 gusting 6 8.3
2019-Dec-15 07:41 249 3 gusting 6 7.8
2019-Dec-15 07:30 228 1 gusting 5 7.8
2019-Dec-15 07:20 210 3 gusting 7 7.8
2019-Dec-15 07:11 207 3 gusting 6 7.2
2019-Dec-15 07:00 245 4 gusting 9 6.7
2019-Dec-15 06:50 223 4 gusting 8 6.7
2019-Dec-15 06:40 239 6 gusting 9 6.7
2019-Dec-15 06:30 056 3 gusting 8 6.7
2019-Dec-15 06:21 289 6 gusting 10 6.7
2019-Dec-15 06:10 202 3 gusting 7 6.7
2019-Dec-15 06:00 175 3 gusting 7 6.7
2019-Dec-15 05:51 233 1 gusting 5 6.7
2019-Dec-15 05:40 232 3 gusting 6 6.7
2019-Dec-15 05:30 210 1 gusting 3 6.1
2019-Dec-15 05:21 209 1 gusting 3 6.1
2019-Dec-15 05:10 250 1 gusting 5 6.7
2019-Dec-15 05:00 205 2 gusting 4 6.7
2019-Dec-15 04:50 242 4 gusting 8 6.7
2019-Dec-15 04:40 165 4 gusting 7 6.7
2019-Dec-15 04:31 234 4 gusting 8 6.7
2019-Dec-15 04:20 235 6 gusting 11 7.2
2019-Dec-15 04:10 209 6 gusting 11 7.2
2019-Dec-15 04:01 301 3 gusting 6 7.2
2019-Dec-15 03:50 277 5 gusting 10 7.2
2019-Dec-15 03:40 265 5 gusting 9 7.2
2019-Dec-15 03:31 256 6 gusting 9 7.2
2019-Dec-15 03:20 239 6 gusting 10 7.2
2019-Dec-15 03:10 234 4 gusting 6 7.2
2019-Dec-15 03:01 240 3 gusting 6 7.2
2019-Dec-15 02:50 235 5 gusting 7 7.8
2019-Dec-15 02:41 229 5 gusting 7 7.8
2019-Dec-15 02:30 240 3 gusting 6 7.8
2019-Dec-15 02:20 227 4 gusting 6 7.8
2019-Dec-15 02:11 158 3 gusting 7 7.8
2019-Dec-15 02:00 234 3 gusting 5 7.8
2019-Dec-15 01:50 234 3 gusting 6 7.8
2019-Dec-15 01:41 222 4 gusting 6 7.8
2019-Dec-15 01:30 230 4 gusting 8 7.8
2019-Dec-15 01:20 259 4 gusting 9 7.8
2019-Dec-15 01:11 252 4 gusting 7 7.8
2019-Dec-15 01:00 184 4 gusting 7 7.8
2019-Dec-15 00:50 220 6 gusting 11 7.8
2019-Dec-15 00:40 217 4 gusting 8 7.8
2019-Dec-15 00:30 226 2 gusting 5 7.8
2019-Dec-15 00:21 253 2 gusting 6 8.3
2019-Dec-15 00:11 261 2 gusting 6 8.3
2019-Dec-15 00:00 209 3 gusting 7 8.3
2019-Dec-14 23:51 274 2 gusting 5 8.9
2019-Dec-14 23:40 256 1 gusting 3 8.9
2019-Dec-14 23:30 172 0 gusting 2 8.9
2019-Dec-14 23:21 281 2 gusting 5 8.9
2019-Dec-14 23:10 225 2 gusting 5 8.9
2019-Dec-14 23:00 119 2 gusting 6 8.9
2019-Dec-14 22:51 285 3 gusting 7 8.9
2019-Dec-14 22:40 273 3 gusting 5 9.4
2019-Dec-14 22:31 226 1 gusting 3 9.4
2019-Dec-14 22:20 224 2 gusting 4 9.4
2019-Dec-14 22:10 202 2 gusting 5 10.0
2019-Dec-14 22:01 200 1 gusting 2 10.6
2019-Dec-14 21:50 263 1 gusting 4 10.6
2019-Dec-14 21:40 217 2 gusting 5 10.0
2019-Dec-14 21:31 228 3 gusting 5 10.0
2019-Dec-14 21:20 204 3 gusting 6 10.0
2019-Dec-14 21:01 218 2 gusting 5 10.0
2019-Dec-14 20:50 203 2 gusting 4 10.6
2019-Dec-14 20:40 173 3 gusting 4 10.6
2019-Dec-14 20:30 195 3 gusting 5 10.0
2019-Dec-14 20:20 187 4 gusting 5 10.0
2019-Dec-14 20:11 180 5 gusting 7 10.0
2019-Dec-14 20:00 156 5 gusting 7 10.0
2019-Dec-14 19:50 160 4 gusting 6 10.0
2019-Dec-14 19:41 192 3 gusting 5 10.0
2019-Dec-14 19:30 200 3 gusting 5 10.0
2019-Dec-14 19:20 210 3 gusting 5 9.4
2019-Dec-14 19:11 221 3 gusting 5 9.4
2019-Dec-14 19:00 186 1 gusting 2 8.9
2019-Dec-14 18:50 184 1 gusting 3 8.9
2019-Dec-14 18:40 187 1 gusting 3 8.9
2019-Dec-14 18:30 197 1 gusting 2 8.9
2019-Dec-14 18:21 151 1 gusting 2 9.4
2019-Dec-14 18:10 182 3 gusting 4 9.4
2019-Dec-14 18:00 142 3 gusting 5 9.4
2019-Dec-14 17:51 169 3 gusting 5 9.4
2019-Dec-14 17:40 152 3 gusting 5 9.4
2019-Dec-14 17:30 166 4 gusting 5 9.4
2019-Dec-14 17:21 171 3 gusting 5 9.4
2019-Dec-14 17:10 138 2 gusting 3 9.4
2019-Dec-14 17:00 149 2 gusting 4 9.4
2019-Dec-14 16:51 135 1 gusting 4 9.4
2019-Dec-14 16:40 151 2 gusting 3 10.0
2019-Dec-14 16:31 137 2 gusting 6 10.0
2019-Dec-14 16:20 130 2 gusting 4 10.0
2019-Dec-14 16:10 135 1 gusting 5 10.0
2019-Dec-14 16:01 116 1 gusting 3 10.6
2019-Dec-14 15:50 127 2 gusting 4 10.6
2019-Dec-14 15:40 131 2 gusting 5 10.6
2019-Dec-14 15:31 139 2 gusting 4 11.1
2019-Dec-14 15:20 118 3 gusting 5 11.1
2019-Dec-14 15:10 108 4 gusting 5 11.1
2019-Dec-14 15:01 121 3 gusting 5 11.1
2019-Dec-14 14:50 119 2 gusting 4 11.7
2019-Dec-14 14:40 149 2 gusting 6 11.7
2019-Dec-14 14:31 123 2 gusting 4 11.7
2019-Dec-14 14:20 120 2 gusting 3 11.7
2019-Dec-14 14:11 127 1 gusting 3 12.2
2019-Dec-14 14:00 151 1 gusting 3 12.2
2019-Dec-14 13:50 119 3 gusting 5 12.8
2019-Dec-14 13:41 115 3 gusting 5 12.8
2019-Dec-14 13:30 158 4 gusting 6 12.8
2019-Dec-14 13:20 118 4 gusting 6 13.3
2019-Dec-14 13:11 145 5 gusting 6 13.3
2019-Dec-14 13:00 143 6 gusting 7 13.3
2019-Dec-14 12:50 132 5 gusting 7 13.3
2019-Dec-14 12:41 124 6 gusting 9 14.4
2019-Dec-14 12:30 165 6 gusting 10 14.4
2019-Dec-14 12:20 128 6 gusting 8 14.4
2019-Dec-14 12:11 148 6 gusting 10 14.4
2019-Dec-14 12:00 150 5 gusting 7 15.0
2019-Dec-14 11:51 149 4 gusting 7 15.0
2019-Dec-14 11:40 141 4 gusting 8 14.4
2019-Dec-14 11:30 154 4 gusting 6 15.6
2019-Dec-14 11:21 160 4 gusting 6 14.4
2019-Dec-14 11:10 169 6 gusting 10 13.9
2019-Dec-14 11:00 148 5 gusting 6 13.9
2019-Dec-14 10:51 199 4 gusting 6 13.9
2019-Dec-14 10:40 175 6 gusting 8 14.4
2019-Dec-14 10:30 175 4 gusting 7 13.9
2019-Dec-14 10:21 174 4 gusting 7 13.3
2019-Dec-14 10:10 158 6 gusting 9 13.3
2019-Dec-14 10:00 160 6 gusting 8 13.9
2019-Dec-14 09:50 172 5 gusting 7 14.4
2019-Dec-14 09:40 195 6 gusting 10 13.9
2019-Dec-14 09:31 183 6 gusting 10 13.3
2019-Dec-14 09:20 172 6 gusting 9 13.3
2019-Dec-14 09:01 135 6 gusting 8 12.2
2019-Dec-14 08:50 142 4 gusting 7 12.2
2019-Dec-14 08:40 124 7 gusting 11 12.2
2019-Dec-14 08:31 130 6 gusting 7 12.2
2019-Dec-14 08:20 152 6 gusting 10 11.7
2019-Dec-14 08:10 172 5 gusting 8 11.1
2019-Dec-14 08:01 127 5 gusting 9 11.1
2019-Dec-14 07:50 147 5 gusting 9 11.1
2019-Dec-14 07:40 152 4 gusting 7 11.1
2019-Dec-14 07:30 168 5 gusting 7 10.6
2019-Dec-14 07:20 138 4 gusting 7 10.0
2019-Dec-14 07:11 162 2 gusting 4 10.0
2019-Dec-14 07:00 174 2 gusting 5 9.4
2019-Dec-14 06:50 109 3 gusting 4 8.9
2019-Dec-14 06:41 135 3 gusting 5 8.9
2019-Dec-14 06:30 150 1 gusting 2 8.3
2019-Dec-14 06:20 173 1 gusting 3 8.3
2019-Dec-14 06:11 145 2 gusting 5 7.8
2019-Dec-14 06:00 176 3 gusting 5 7.8
2019-Dec-14 05:50 161 3 gusting 6 7.2
2019-Dec-14 05:41 176 2 gusting 5 6.7
2019-Dec-14 05:30 164 3 gusting 5 6.1
2019-Dec-14 05:21 156 2 gusting 3 6.1
2019-Dec-14 05:10 161 2 gusting 5 6.1
2019-Dec-14 05:00 153 1 gusting 3 6.1
2019-Dec-14 04:51 116 2 gusting 3 6.7
2019-Dec-14 04:40 105 2 gusting 4 6.7
2019-Dec-14 04:30 128 2 gusting 3 6.7
2019-Dec-14 04:21 100 2 gusting 4 6.7
2019-Dec-14 04:10 097 3 gusting 5 6.7
2019-Dec-14 04:00 126 2 gusting 4 6.1
2019-Dec-14 03:51 137 1 gusting 3 6.1
2019-Dec-14 03:40 144 2 gusting 4 6.1
2019-Dec-14 03:31 151 1 gusting 3 6.1
2019-Dec-14 03:20 154 1 gusting 3 6.7
2019-Dec-14 03:10 143 3 gusting 5 6.7
2019-Dec-14 03:01 152 2 gusting 3 6.1
2019-Dec-14 02:50 138 2 gusting 3 6.7
2019-Dec-14 02:40 150 1 gusting 2 6.7
2019-Dec-14 02:31 156 2 gusting 3 6.7
2019-Dec-14 02:20 131 2 gusting 3 6.7
2019-Dec-14 02:10 174 2 gusting 4 7.2
2019-Dec-14 02:01 187 2 gusting 3 7.2
2019-Dec-14 01:50 175 1 gusting 3 6.7
2019-Dec-14 01:40 127 0 gusting 1 6.7
2019-Dec-14 01:30 176 1 gusting 3 6.7
2019-Dec-14 01:20 170 7.2
2019-Dec-14 01:11 120 6.7
2019-Dec-14 01:00 6.7
2019-Dec-14 00:50 054 7.2
2019-Dec-14 00:41 090 0 gusting 1 7.2
2019-Dec-14 00:30 107 1 gusting 2 7.2
2019-Dec-14 00:20 119 1 gusting 2 7.8
2019-Dec-14 00:11 109 1 gusting 2 7.8
2019-Dec-14 00:00 127 2 gusting 2 7.8
2019-Dec-13 23:50 130 2 gusting 3 7.8
2019-Dec-13 23:41 148 1 gusting 2 8.3
2019-Dec-13 23:30 146 1 gusting 2 8.3
2019-Dec-13 23:20 135 2 gusting 4 8.9
2019-Dec-13 23:10 137 2 gusting 4 8.9
2019-Dec-13 23:00 207 3 gusting 5 9.4